Time;durP1;ratioP1;P1;durP2;ratioP2;P2;SDS_P1;SDS_P2;PMS_P1;PMS_P2;Temp;Humidity;BMP_temperature;BMP_pressure;BME280_temperature;BME280_humidity;BME280_pressure;Samples;Min_cycle;Max_cycle;Signal;HPM_P1;HPM_P2
2021/12/10 00:01:55;;;;;;;21.23;13.20;;;;;;;3.72;100.00;99698.53;5251867;28;20027;-71
2021/12/10 00:04:31;;;;;;;22.07;12.93;;;;;;;3.74;100.00;99689.69;5251610;28;20413;-71
2021/12/10 00:07:20;;;;;;;20.08;12.10;;;;;;;3.86;100.00;99688.78;5252613;28;20318;-71
2021/12/10 00:09:58;;;;;;;26.88;12.23;;;;;;;3.86;100.00;99673.25;5251893;28;20040;-71
2021/12/10 00:12:35;;;;;;;21.25;11.93;;;;;;;3.90;100.00;99666.88;5252672;28;20032;-71
2021/12/10 00:15:07;;;;;;;21.80;11.95;;;;;;;3.90;100.00;99666.03;5251475;28;20061;-71
2021/12/10 00:17:39;;;;;;;17.67;11.02;;;;;;;3.89;100.00;99661.78;5252771;28;20605;-73
2021/12/10 00:20:11;;;;;;;19.63;10.98;;;;;;;3.91;100.00;99646.97;5252962;28;20044;-72
2021/12/10 00:22:51;;;;;;;20.77;11.07;;;;;;;4.00;100.00;99650.63;5251244;28;20060;-72
2021/12/10 00:25:33;;;;;;;16.42;11.13;;;;;;;3.99;100.00;99642.03;5253543;28;20040;-72
2021/12/10 00:28:19;;;;;;;16.70;9.80;;;;;;;4.00;100.00;99635.06;5253405;28;20096;-73
2021/12/10 00:34:21;;;;;;;17.40;8.60;;;;;;;4.09;100.00;99611.03;5236162;28;20116;-71
2021/12/10 00:36:56;;;;;;;15.55;9.82;;;;;;;4.08;100.00;99615.38;5254069;28;20390;-71
2021/12/10 00:39:31;;;;;;;16.58;8.85;;;;;;;4.10;100.00;99603.16;5255586;28;20016;-74
2021/12/10 00:42:06;;;;;;;13.25;8.77;;;;;;;4.12;100.00;99600.41;5255770;28;20617;-71
2021/12/10 00:44:38;;;;;;;14.82;8.10;;;;;;;4.06;100.00;99585.38;5255816;28;20051;-71
2021/12/10 00:47:09;;;;;;;13.98;7.75;;;;;;;4.04;100.00;99582.88;5256381;28;20021;-72
2021/12/10 00:49:41;;;;;;;10.82;7.45;;;;;;;4.03;100.00;99580.41;5256140;28;20051;-71
2021/12/10 00:52:15;;;;;;;14.00;7.93;;;;;;;4.01;100.00;99567.56;5254941;28;20035;-70
2021/12/10 00:54:47;;;;;;;14.02;6.88;;;;;;;3.99;100.00;99553.91;5256291;28;20039;-71
2021/12/10 00:57:18;;;;;;;12.10;6.97;;;;;;;3.97;100.00;99563.56;5256347;28;20506;-72
2021/12/10 00:59:50;;;;;;;14.98;7.32;;;;;;;3.98;100.00;99554.88;5256753;28;20482;-71
2021/12/10 01:02:24;;;;;;;12.32;5.93;;;;;;;3.98;100.00;99547.09;5255258;28;20108;-71
2021/12/10 01:04:59;;;;;;;11.45;6.38;;;;;;;3.97;100.00;99537.66;5256355;28;20393;-71
2021/12/10 01:07:33;;;;;;;10.35;6.10;;;;;;;3.96;100.00;99533.41;5255534;28;20020;-72
2021/12/10 01:10:16;;;;;;;8.50;5.45;;;;;;;4.07;100.00;99524.81;5256123;28;20056;-73
2021/12/10 01:12:55;;;;;;;14.90;6.45;;;;;;;3.99;100.00;99509.88;5255686;28;20074;-72
2021/12/10 01:15:45;;;;;;;16.63;6.15;;;;;;;3.99;100.00;99506.44;5255104;28;20394;-74
2021/12/10 01:23:47;;;;;;;15.57;5.93;;;;;;;3.97;100.00;99490.19;5255844;28;20040;-73
2021/12/10 01:25:06;;;;;;;10.07;5.38;;;;;;;3.97;100.00;99479.81;5254648;28;20120;-71
2021/12/10 01:27:13;;;;;;;10.68;5.18;;;;;;;3.96;100.00;99476.41;5246094;28;20045;-71
2021/12/10 01:29:45;;;;;;;7.93;5.20;;;;;;;3.93;100.00;99463.69;5255971;28;20025;-71
2021/12/10 01:32:18;;;;;;;10.55;5.38;;;;;;;3.89;100.00;99451.94;5254536;28;20021;-72
2021/12/10 01:34:50;;;;;;;11.80;5.57;;;;;;;3.92;100.00;99445.69;5255389;28;20098;-71
2021/12/10 01:37:23;;;;;;;13.23;5.32;;;;;;;3.92;100.00;99443.91;5256190;28;20111;-71
2021/12/10 01:39:56;;;;;;;9.20;5.43;;;;;;;3.94;100.00;99441.19;5255727;28;20020;-71
2021/12/10 01:45:05;;;;;;;8.30;4.93;;;;;;;3.92;100.00;99424.97;5255476;28;20053;-71
2021/12/10 01:47:37;;;;;;;12.07;5.03;;;;;;;3.86;100.00;99427.09;5255889;28;20089;-71
2021/12/10 01:50:09;;;;;;;12.93;5.35;;;;;;;3.88;100.00;99422.63;5254911;28;20031;-73
2021/12/10 01:52:40;;;;;;;11.13;5.18;;;;;;;3.84;100.00;99420.41;5254977;28;20393;-71
2021/12/10 01:55:14;;;;;;;12.38;5.10;;;;;;;3.89;100.00;99420.84;5256045;28;20044;-71
2021/12/10 01:57:46;;;;;;;7.72;4.35;;;;;;;3.85;100.00;99422.03;5256483;28;20070;-70
2021/12/10 02:00:22;;;;;;;7.82;4.40;;;;;;;3.92;100.00;99405.06;5255651;28;20025;-70
2021/12/10 02:02:54;;;;;;;10.27;4.65;;;;;;;3.88;100.00;99406.25;5257453;28;20093;-70
2021/12/10 02:05:26;;;;;;;12.63;5.13;;;;;;;3.80;100.00;99406.03;5257671;28;20025;-70
2021/12/10 02:07:58;;;;;;;10.85;4.43;;;;;;;3.76;100.00;99400.28;5256560;28;20032;-70
2021/12/10 02:10:30;;;;;;;13.40;4.55;;;;;;;3.73;100.00;99394.53;5256935;28;20025;-70
2021/12/10 02:13:02;;;;;;;13.00;5.18;;;;;;;3.77;100.00;99386.38;5256305;28;20466;-70
2021/12/10 02:15:34;;;;;;;10.35;4.70;;;;;;;3.71;100.00;99392.03;5256994;28;20611;-70
2021/12/10 02:18:08;;;;;;;7.65;4.00;;;;;;;3.73;100.00;99378.97;5255856;28;20398;-70
2021/12/10 02:20:49;;;;;;;11.80;4.32;;;;;;;3.78;100.00;99379.44;5256659;28;20104;-70
2021/12/10 02:23:22;;;;;;;14.45;4.78;;;;;;;3.73;100.00;99363.44;5255981;28;20021;-70
2021/12/10 02:25:55;;;;;;;11.07;4.20;;;;;;;3.69;100.00;99352.50;5255363;28;20036;-70
2021/12/10 02:28:28;;;;;;;15.25;5.00;;;;;;;3.75;100.00;99357.19;5254820;28;20075;-70
2021/12/10 02:31:00;;;;;;;12.15;4.35;;;;;;;3.76;100.00;99335.53;5255414;28;20036;-70
2021/12/10 02:33:31;;;;;;;8.38;3.90;;;;;;;3.74;100.00;99346.94;5256085;28;20032;-70
2021/12/10 02:36:03;;;;;;;10.93;3.65;;;;;;;3.77;100.00;99341.53;5256443;28;20033;-70
2021/12/10 02:38:35;;;;;;;10.77;4.40;;;;;;;3.77;100.00;99334.56;5255531;28;20105;-70
2021/12/10 02:41:06;;;;;;;11.13;3.85;;;;;;;3.75;100.00;99327.84;5256331;28;20029;-70
2021/12/10 02:43:38;;;;;;;12.02;3.60;;;;;;;3.76;100.00;99326.94;5254707;28;20368;-70
2021/12/10 02:46:10;;;;;;;12.35;3.60;;;;;;;3.73;100.00;99314.22;5256566;28;20053;-70
2021/12/10 02:48:41;;;;;;;8.27;3.55;;;;;;;3.80;100.00;99305.03;5255085;28;20021;-70
2021/12/10 02:51:13;;;;;;;9.00;3.55;;;;;;;3.79;100.00;99301.63;5257728;28;20021;-70
2021/12/10 02:53:45;;;;;;;8.32;3.47;;;;;;;3.79;100.00;99293.84;5255084;28;20557;-70
2021/12/10 02:56:20;;;;;;;6.40;2.95;;;;;;;3.84;100.00;99296.03;5255700;28;20522;-70
2021/12/10 02:58:58;;;;;;;10.07;3.03;;;;;;;3.82;100.00;99293.56;5254374;28;20031;-70
2021/12/10 03:01:43;;;;;;;9.35;3.03;;;;;;;3.79;100.00;99291.25;5253667;28;20025;-70
2021/12/10 03:04:15;;;;;;;8.40;3.40;;;;;;;3.75;100.00;99279.50;5255207;28;20042;-70
2021/12/10 03:06:50;;;;;;;9.73;2.88;;;;;;;3.81;100.00;99278.97;5254448;28;20119;-70
2021/12/10 03:09:25;;;;;;;13.40;2.65;;;;;;;3.84;100.00;99267.56;5253801;28;20100;-70
2021/12/10 03:11:58;;;;;;;7.47;3.17;;;;;;;3.90;100.00;99269.63;5254117;28;20029;-70
2021/12/10 03:14:31;;;;;;;;;;;;;;;4.19;100.00;99266.41;5254936;28;20117;-70
2021/12/10 03:17:08;;;;;;;9.60;3.30;;;;;;;3.93;100.00;99255.59;5254245;28;20023;-70
2021/12/10 03:19:40;;;;;;;8.30;2.75;;;;;;;3.90;100.00;99244.56;5254496;28;20016;-70
2021/12/10 03:22:11;;;;;;;7.85;3.17;;;;;;;3.93;100.00;99255.59;5253840;28;20024;-70
2021/12/10 03:24:43;;;;;;;6.70;2.72;;;;;;;3.90;100.00;99246.31;5255444;28;20027;-70
2021/12/10 03:27:15;;;;;;;8.55;3.38;;;;;;;3.93;100.00;99251.25;5254534;28;20033;-70
2021/12/10 03:29:48;;;;;;;7.93;2.58;;;;;;;3.95;100.00;99239.00;5255269;28;20023;-70
2021/12/10 03:32:24;;;;;;;10.80;3.08;;;;;;;4.03;100.00;99241.75;5255388;28;20379;-70
2021/12/10 03:35:03;;;;;;;10.32;3.03;;;;;;;3.99;100.00;99242.97;5253811;28;20032;-70
2021/12/10 03:37:36;;;;;;;6.57;2.53;;;;;;;3.99;100.00;99234.38;5255466;28;20553;-70
2021/12/10 03:40:11;;;;;;;12.80;4.22;;;;;;;4.03;100.00;99226.22;5254793;28;20028;-70
2021/12/10 03:42:44;;;;;;;9.88;2.90;;;;;;;4.00;100.00;99213.50;5254913;28;20029;-70
2021/12/10 03:45:17;;;;;;;7.38;2.80;;;;;;;4.06;100.00;99218.19;5253965;28;20080;-70
2021/12/10 03:47:49;;;;;;;8.15;2.83;;;;;;;4.03;100.00;99212.44;5253876;28;20498;-70
2021/12/10 03:50:25;;;;;;;9.18;3.05;;;;;;;4.11;100.00;99207.44;5253925;28;20029;-70
2021/12/10 03:52:57;;;;;;;7.72;2.80;;;;;;;4.09;100.00;99207.56;5253869;28;20655;-70
2021/12/10 03:55:28;;;;;;;8.02;2.63;;;;;;;4.15;100.00;99207.03;5254726;28;20028;-70
2021/12/10 03:58:01;;;;;;;6.25;2.40;;;;;;;4.14;100.00;99202.81;5253952;28;20024;-70
2021/12/10 04:00:37;;;;;;;9.52;3.25;;;;;;;4.13;100.00;99196.00;5255301;28;20021;-70
2021/12/10 04:03:11;;;;;;;6.75;2.65;;;;;;;4.20;100.00;99198.88;5254255;28;20025;-70
2021/12/10 04:05:42;;;;;;;6.32;2.58;;;;;;;4.20;100.00;99185.09;5254909;28;20490;-70
2021/12/10 04:08:14;;;;;;;9.50;2.83;;;;;;;4.11;100.00;99168.56;5252857;28;20123;-70
2021/12/10 04:10:47;;;;;;;6.53;2.35;;;;;;;4.20;100.00;99172.94;5254031;28;20513;-70
2021/12/10 04:13:19;;;;;;;8.95;2.65;;;;;;;4.19;100.00;99160.94;5257278;28;20024;-70
2021/12/10 04:15:50;;;;;;;6.82;2.33;;;;;;;4.14;100.00;99156.16;5258530;28;20406;-70
2021/12/10 04:18:22;;;;;;;7.50;2.88;;;;;;;4.19;100.00;99157.53;5257857;28;20029;-70
2021/12/10 04:20:53;;;;;;;7.78;2.33;;;;;;;4.26;100.00;99137.94;5259095;28;20090;-70
2021/12/10 04:23:25;;;;;;;8.35;2.88;;;;;;;4.23;100.00;99138.19;5257034;28;20024;-70
2021/12/10 04:25:57;;;;;;;6.93;2.50;;;;;;;4.24;100.00;99140.63;5258434;28;20109;-70
2021/12/10 04:28:28;;;;;;;8.27;2.47;;;;;;;4.19;100.00;99123.84;5258585;28;20039;-70
2021/12/10 04:31:00;;;;;;;6.80;1.98;;;;;;;4.13;100.00;99117.44;5257138;28;20033;-70
2021/12/10 04:33:31;;;;;;;5.75;2.33;;;;;;;4.18;100.00;99114.44;5257742;28;20025;-70
2021/12/10 04:36:05;;;;;;;7.43;2.65;;;;;;;4.22;100.00;99102.84;5257967;28;20060;-70
2021/12/10 04:38:37;;;;;;;9.27;2.40;;;;;;;4.20;100.00;99109.94;5258051;28;20520;-70
2021/12/10 04:41:10;;;;;;;6.07;2.38;;;;;;;4.14;100.00;99095.75;5258342;28;20025;-70
2021/12/10 04:43:44;;;;;;;10.27;2.53;;;;;;;4.21;100.00;99096.03;5257140;28;20333;-70
2021/12/10 04:46:16;;;;;;;8.57;2.50;;;;;;;4.11;100.00;99089.03;5258351;28;20029;-70
2021/12/10 04:48:49;;;;;;;8.30;2.35;;;;;;;4.17;100.00;99079.09;5256687;28;20094;-70
2021/12/10 04:51:22;;;;;;;;;;;;;;;4.47;100.00;99073.84;5258210;28;20021;-71
2021/12/10 04:53:56;;;;;;;7.80;2.75;;;;;;;4.13;100.00;99069.00;5257021;28;19917;-70
2021/12/10 04:56:28;;;;;;;7.93;2.35;;;;;;;4.12;100.00;99062.16;5256999;28;20025;-70
2021/12/10 04:59:02;;;;;;;7.78;2.13;;;;;;;4.02;100.00;99053.56;5255073;28;20074;-70
2021/12/10 05:01:35;;;;;;;11.93;2.45;;;;;;;4.10;100.00;99048.53;5254844;28;20090;-70
2021/12/10 05:04:08;;;;;;;8.70;2.20;;;;;;;3.97;100.00;99040.16;5256555;28;20029;-70
2021/12/10 05:06:39;;;;;;;5.82;2.25;;;;;;;4.08;100.00;99036.66;5256573;28;20396;-71
2021/12/10 05:09:12;;;;;;;5.78;2.03;;;;;;;4.07;100.00;99043.59;5256678;28;20025;-70
2021/12/10 05:11:44;;;;;;;;;;;;;;;4.22;100.00;99038.06;5256739;28;20033;-70
2021/12/10 05:14:17;;;;;;;9.63;2.25;;;;;;;4.11;100.00;99038.97;5256853;28;19915;-70
2021/12/10 05:16:51;;;;;;;7.50;2.30;;;;;;;4.01;100.00;99031.16;5256792;28;20057;-70
2021/12/10 05:19:25;;;;;;;7.40;2.20;;;;;;;4.04;100.00;99020.56;5256359;28;20220;-70
2021/12/10 05:22:00;;;;;;;7.60;2.70;;;;;;;4.13;100.00;99030.13;5257057;28;20036;-70
2021/12/10 05:24:32;;;;;;;6.82;2.08;;;;;;;4.09;100.00;99027.91;5256168;28;20075;-70
2021/12/10 05:27:04;;;;;;;7.70;2.30;;;;;;;4.09;100.00;99014.97;5238384;28;20053;-71
2021/12/10 05:29:35;;;;;;;9.88;2.88;;;;;;;4.15;100.00;99025.63;5256715;28;20117;-70
2021/12/10 05:32:07;;;;;;;11.02;2.45;;;;;;;4.14;100.00;99026.59;5256187;28;21073;-70
2021/12/10 05:34:40;;;;;;;8.53;3.03;;;;;;;4.15;100.00;99024.81;5256648;28;20048;-70
2021/12/10 05:37:13;;;;;;;9.15;2.80;;;;;;;4.18;100.00;99026.31;5255874;28;20344;-70
2021/12/10 05:39:44;;;;;;;8.77;3.37;;;;;;;4.19;100.00;99017.59;5256657;28;20021;-70
2021/12/10 05:42:16;;;;;;;5.90;3.20;;;;;;;4.22;100.00;99018.13;5257321;28;20278;-70
2021/12/10 05:44:47;;;;;;;11.40;3.72;;;;;;;4.26;100.00;99009.13;5255984;28;20144;-70
2021/12/10 05:47:18;;;;;;;9.50;2.92;;;;;;;4.23;100.00;99006.81;5254446;28;20159;-70
2021/12/10 05:49:50;;;;;;;7.53;3.00;;;;;;;4.23;100.00;99008.59;5255746;28;20041;-70
2021/12/10 05:52:21;;;;;;;5.78;2.72;;;;;;;4.19;100.00;98996.84;5255677;28;20025;-70
2021/12/10 05:54:52;;;;;;;8.75;3.05;;;;;;;4.27;100.00;99012.53;5256501;28;20446;-70
2021/12/10 05:57:24;;;;;;;11.18;3.20;;;;;;;4.32;100.00;99006.00;5256194;28;20064;-70
2021/12/10 05:59:55;;;;;;;7.13;2.58;;;;;;;4.25;100.00;98997.13;5256406;28;20025;-70
2021/12/10 06:02:27;;;;;;;11.07;3.22;;;;;;;4.31;100.00;98999.16;5255387;28;20059;-70
2021/12/10 06:04:59;;;;;;;6.82;2.70;;;;;;;4.28;100.00;98990.84;5256373;28;20401;-70
2021/12/10 06:07:30;;;;;;;9.23;2.53;;;;;;;4.33;100.00;98994.69;5255498;28;20021;-70
2021/12/10 06:10:03;;;;;;;8.93;2.97;;;;;;;4.35;100.00;99002.31;5255999;28;20040;-70
2021/12/10 06:12:35;;;;;;;8.85;2.60;;;;;;;4.36;100.00;99002.19;5256134;28;20486;-70
2021/12/10 06:15:08;;;;;;;9.38;3.00;;;;;;;4.34;100.00;99004.09;5254778;28;20543;-70
2021/12/10 06:17:40;;;;;;;7.13;2.20;;;;;;;4.35;100.00;98990.16;5255553;28;20394;-70
2021/12/10 06:20:14;;;;;;;7.13;2.40;;;;;;;4.42;100.00;98992.22;5256240;28;20013;-70
2021/12/10 06:22:46;;;;;;;9.35;3.03;;;;;;;4.35;100.00;98990.16;5255259;28;20033;-70
2021/12/10 06:25:17;;;;;;;10.48;2.83;;;;;;;4.38;100.00;98989.06;5254847;28;20028;-70
2021/12/10 06:27:48;;;;;;;8.00;2.63;;;;;;;4.36;100.00;98981.44;5255752;28;20107;-70
2021/12/10 06:30:28;;;;;;;7.05;2.75;;;;;;;4.36;100.00;98984.03;5255354;28;20547;-70
2021/12/10 06:33:01;;;;;;;7.45;2.40;;;;;;;4.36;100.00;98991.81;5255034;28;20032;-70
2021/12/10 06:35:33;;;;;;;7.82;2.65;;;;;;;4.37;100.00;98987.44;5254212;28;20025;-70
2021/12/10 06:38:06;;;;;;;9.37;2.23;;;;;;;4.38;100.00;98979.53;5255151;28;20478;-70
2021/12/10 06:40:40;;;;;;;10.32;3.20;;;;;;;4.38;100.00;98979.53;5255848;28;20354;-70
2021/12/10 06:43:12;;;;;;;6.43;2.50;;;;;;;4.38;100.00;98978.72;5254035;28;20029;-70
2021/12/10 06:45:46;;;;;;;7.93;2.83;;;;;;;4.40;100.00;98979.41;5255973;28;20040;-70
2021/12/10 06:48:18;;;;;;;;;;;;;;;4.78;100.00;98978.56;5254509;28;20039;-70
2021/12/10 06:50:52;;;;;;;10.80;2.95;;;;;;;4.39;100.00;98975.16;5255707;28;19916;-70
2021/12/10 06:53:26;;;;;;;9.20;2.83;;;;;;;4.40;100.00;98984.59;5254203;28;20116;-70
2021/12/10 06:55:59;;;;;;;8.88;3.17;;;;;;;4.42;100.00;98982.66;5255388;28;20036;-70
2021/12/10 06:58:33;;;;;;;4.90;2.30;;;;;;;4.42;100.00;98985.25;5254617;28;20059;-70
2021/12/10 07:01:21;;;;;;;12.52;3.53;;;;;;;4.46;100.00;98994.41;5254169;28;20064;-70
2021/12/10 07:03:54;;;;;;;6.72;2.70;;;;;;;4.47;100.00;99001.25;5254302;28;20025;-70
2021/12/10 07:06:26;;;;;;;;;;;;;;;4.81;100.00;98993.00;5255619;28;20024;-70
2021/12/10 07:09:00;;;;;;;7.18;2.67;;;;;;;4.55;100.00;99000.56;5255074;28;19917;-70
2021/12/10 07:11:33;;;;;;;6.68;2.80;;;;;;;4.45;100.00;98992.78;5254808;28;20036;-69
2021/12/10 07:14:05;;;;;;;12.10;3.85;;;;;;;4.45;100.00;98987.59;5257859;28;20144;-70
2021/12/10 07:16:36;;;;;;;7.00;2.72;;;;;;;4.49;100.00;98988.13;5256104;28;20659;-70
2021/12/10 07:19:08;;;;;;;9.68;3.10;;;;;;;4.42;100.00;98990.44;5256285;28;20044;-70
2021/12/10 07:21:39;;;;;;;10.80;3.15;;;;;;;4.45;100.00;98995.38;5255822;28;20393;-69
2021/12/10 07:24:16;;;;;;;7.78;3.17;;;;;;;4.51;100.00;98986.19;5255588;28;20032;-70
2021/12/10 07:26:48;;;;;;;11.32;3.08;;;;;;;4.43;100.00;98984.28;5256609;28;20029;-70
2021/12/10 07:29:21;;;;;;;8.43;2.72;;;;;;;4.44;100.00;98983.38;5257109;28;20028;-70
2021/12/10 07:31:52;;;;;;;9.85;4.70;;;;;;;4.49;100.00;98986.34;5256648;28;20050;-70
2021/12/10 07:34:23;;;;;;;9.20;2.95;;;;;;;4.46;100.00;98985.81;5255490;28;20584;-70
2021/12/10 07:36:55;;;;;;;9.18;2.90;;;;;;;4.50;100.00;98984.56;5253323;28;20025;-70
2021/12/10 07:39:27;;;;;;;10.02;3.63;;;;;;;4.41;100.00;98969.84;5256247;28;20040;-70
2021/12/10 07:42:00;;;;;;;12.13;3.40;;;;;;;4.48;100.00;98976.94;5254948;28;20203;-70
2021/12/10 07:44:31;;;;;;;8.75;2.67;;;;;;;4.47;100.00;98984.84;5254475;28;20132;-70
2021/12/10 07:47:09;;;;;;;12.70;3.75;;;;;;;4.48;100.00;98982.13;5253870;28;20115;-70
2021/12/10 07:49:42;;;;;;;8.65;2.80;;;;;;;4.47;100.00;98979.66;5256257;28;20409;-70
2021/12/10 07:52:20;;;;;;;11.18;3.50;;;;;;;4.46;100.00;98989.22;5254677;28;20127;-69
2021/12/10 07:54:52;;;;;;;8.35;2.53;;;;;;;4.42;100.00;98987.03;5251592;28;20071;-70
2021/12/10 07:57:24;;;;;;;10.95;2.78;;;;;;;4.33;100.00;98983.50;5250525;28;20033;-70
2021/12/10 07:59:56;;;;;;;17.98;3.65;;;;;;;4.44;100.00;98991.13;5252982;28;20017;-70
2021/12/10 08:02:27;;;;;;;6.30;2.15;;;;;;;4.50;100.00;98992.34;5251754;28;20020;-70
2021/12/10 08:04:59;;;;;;;9.40;2.20;;;;;;;4.47;100.00;98993.47;5252338;28;20036;-71
2021/12/10 08:07:30;;;;;;;7.60;2.45;;;;;;;4.38;100.00;98996.84;5249504;28;20407;-70
2021/12/10 08:10:03;;;;;;;7.18;2.17;;;;;;;4.44;100.00;98995.50;5243949;28;20037;-70
2021/12/10 08:12:35;;;;;;;7.05;2.05;;;;;;;4.42;100.00;98987.03;5251942;28;20100;-71
2021/12/10 08:15:07;;;;;;;10.45;2.17;;;;;;;4.48;100.00;98986.50;5252639;28;20105;-70
2021/12/10 08:17:42;;;;;;;9.45;2.78;;;;;;;4.43;100.00;98991.25;5245845;28;20033;-70
2021/12/10 08:20:21;;;;;;;13.10;2.78;;;;;;;4.47;100.00;98996.06;5252809;28;20040;-70
2021/12/10 08:22:53;;;;;;;22.35;2.65;;;;;;;4.47;100.00;98990.88;5252519;28;20028;-70
2021/12/10 08:25:27;;;;;;;8.38;2.90;;;;;;;4.51;100.00;98994.81;5252044;28;20029;-70
2021/12/10 08:28:00;;;;;;;9.88;2.75;;;;;;;4.48;100.00;98996.88;5251526;28;20057;-70
2021/12/10 08:30:34;;;;;;;8.30;3.00;;;;;;;4.56;100.00;98999.59;5252038;28;20573;-70
2021/12/10 08:33:12;;;;;;;6.93;2.25;;;;;;;4.46;100.00;98985.81;5252600;28;20414;-70
2021/12/10 08:35:47;;;;;;;6.35;2.25;;;;;;;4.47;100.00;98990.88;5251770;28;20021;-70
2021/12/10 08:38:18;;;;;;;9.60;2.20;;;;;;;4.55;100.00;98987.59;5252713;28;20485;-70
2021/12/10 08:40:57;;;;;;;9.27;2.22;;;;;;;4.59;100.00;98996.72;5253015;28;20029;-70
2021/12/10 08:43:30;;;;;;;5.15;2.60;;;;;;;4.55;100.00;99003.97;5252495;28;20029;-70
2021/12/10 08:46:04;;;;;;;6.88;2.28;;;;;;;4.54;100.00;98998.91;5251038;28;20561;-70
2021/12/10 08:48:36;;;;;;;8.68;2.47;;;;;;;4.60;100.00;99000.97;5252499;28;20106;-72
2021/12/10 08:51:16;;;;;;;7.93;2.23;;;;;;;4.62;100.00;98999.88;5252260;28;20554;-70
2021/12/10 08:53:48;;;;;;;10.65;2.35;;;;;;;4.53;100.00;98997.28;5250569;28;20127;-70
2021/12/10 08:56:20;;;;;;;7.95;2.53;;;;;;;4.56;100.00;98999.59;5252460;28;20780;-70
2021/12/10 08:58:52;;;;;;;6.55;2.50;;;;;;;4.61;100.00;99002.59;5254115;28;20471;-70
2021/12/10 09:01:28;;;;;;;11.73;3.17;;;;;;;4.63;100.00;98992.91;5253400;28;20027;-70
2021/12/10 09:04:01;;;;;;;5.60;2.17;;;;;;;4.65;100.00;98998.75;5255240;28;20029;-70
2021/12/10 09:06:36;;;;;;;8.05;2.35;;;;;;;4.77;100.00;98991.66;5254723;28;20548;-71
2021/12/10 09:09:11;;;;;;;11.00;2.38;;;;;;;4.80;100.00;98989.59;5249952;28;20033;-70
2021/12/10 09:11:48;;;;;;;8.93;2.88;;;;;;;4.80;100.00;98999.97;5254101;28;20542;-70
2021/12/10 09:14:21;;;;;;;7.10;3.13;;;;;;;4.80;100.00;99004.34;5254139;28;20051;-70
2021/12/10 09:16:56;;;;;;;11.15;3.22;;;;;;;4.79;100.00;99003.53;5254196;28;20104;-70
2021/12/10 09:19:29;;;;;;;10.23;2.88;;;;;;;4.83;100.00;99004.06;5254969;28;20077;-70
2021/12/10 09:22:00;;;;;;;11.75;2.60;;;;;;;4.83;100.00;99001.47;5254791;28;20052;-70
2021/12/10 09:24:32;;;;;;;8.40;2.40;;;;;;;4.87;100.00;99008.03;5254606;28;20361;-70
2021/12/10 09:27:04;;;;;;;10.00;2.83;;;;;;;4.90;100.00;99002.56;5254860;28;20043;-70
2021/12/10 09:29:39;;;;;;;9.63;3.05;;;;;;;4.84;100.00;99003.94;5255780;28;20028;-70
2021/12/10 09:32:14;;;;;;;7.20;2.72;;;;;;;4.94;100.00;99016.91;5255427;28;20051;-70
2021/12/10 09:34:45;;;;;;;6.15;2.95;;;;;;;4.96;100.00;99011.56;5253330;28;20057;-70
2021/12/10 09:37:18;;;;;;;8.10;2.50;;;;;;;5.01;100.00;99011.97;5252879;28;20025;-70
2021/12/10 09:39:51;;;;;;;12.20;2.83;;;;;;;5.03;100.00;99018.66;5253568;28;20096;-70
2021/12/10 09:42:22;;;;;;;7.32;3.38;;;;;;;5.19;100.00;99010.31;5254688;28;20021;-70
2021/12/10 09:44:55;;;;;;;8.50;2.85;;;;;;;5.06;100.00;99013.19;5253649;28;20053;-70
2021/12/10 09:47:26;;;;;;;7.72;2.88;;;;;;;5.00;100.00;99008.56;5253362;28;20021;-70
2021/12/10 09:49:58;;;;;;;10.27;3.00;;;;;;;5.02;100.00;99006.63;5254438;28;20082;-70
2021/12/10 09:52:29;;;;;;;10.88;2.85;;;;;;;5.05;100.00;99016.75;5253610;28;20039;-70
2021/12/10 09:55:03;;;;;;;5.90;2.28;;;;;;;5.08;100.00;99019.06;5253655;28;20021;-71
2021/12/10 09:57:36;;;;;;;11.45;3.83;;;;;;;5.10;100.00;99024.91;5254096;28;20037;-70
2021/12/10 10:00:14;;;;;;;10.13;2.67;;;;;;;5.15;100.00;99016.72;5254260;28;20021;-71
2021/12/10 10:02:46;;;;;;;9.30;2.92;;;;;;;5.11;100.00;99021.38;5252749;28;20032;-71
2021/12/10 10:05:18;;;;;;;9.52;2.83;;;;;;;5.16;100.00;99014.97;5254451;28;20029;-70
2021/12/10 10:07:51;;;;;;;8.48;2.80;;;;;;;5.10;100.00;99019.72;5253183;28;20025;-70
2021/12/10 10:10:24;;;;;;;;;;;;;;;5.56;100.00;99025.88;5252211;28;20730;-71
2021/12/10 10:12:57;;;;;;;9.73;3.00;;;;;;;5.25;100.00;99022.69;5253743;28;20015;-70
2021/12/10 10:15:30;;;;;;;;;;;;;;;5.68;100.00;99020.50;5254689;28;20102;-71
2021/12/10 10:18:06;;;;;;;8.55;2.83;;;;;;;5.35;100.00;99022.69;5254476;28;20333;-70
2021/12/10 10:20:41;;;;;;;8.93;3.05;;;;;;;5.40;100.00;99017.06;5253855;28;20021;-71
2021/12/10 10:23:13;;;;;;;5.35;2.50;;;;;;;5.36;100.00;99024.31;5251701;28;20040;-70
2021/12/10 10:25:49;;;;;;;14.10;2.70;;;;;;;5.38;100.00;99017.22;5253714;28;20029;-71
2021/12/10 10:28:21;;;;;;;7.05;2.63;;;;;;;5.37;100.00;99026.75;5253032;28;20056;-71
2021/12/10 10:31:05;;;;;;;5.15;2.20;;;;;;;5.45;100.00;99031.25;5253432;28;20182;-70
2021/12/10 10:33:39;;;;;;;8.07;2.65;;;;;;;5.42;100.00;99022.91;5253723;28;20020;-70
2021/12/10 10:36:19;;;;;;;7.03;2.72;;;;;;;5.50;100.00;99030.84;5249997;28;20025;-70
2021/12/10 10:38:55;;;;;;;8.23;2.50;;;;;;;5.46;100.00;99025.13;5253058;28;20257;-70
2021/12/10 10:41:28;;;;;;;5.63;2.28;;;;;;;5.48;100.00;99025.78;5253837;28;20027;-70
2021/12/10 10:44:00;;;;;;;9.48;3.00;;;;;;;5.42;100.00;99030.72;5252086;28;20135;-71
2021/12/10 10:46:34;;;;;;;4.75;2.17;;;;;;;5.50;100.00;99028.25;5252799;28;20071;-70
2021/12/10 10:49:06;;;;;;;7.18;2.20;;;;;;;5.46;100.00;99025.13;5253351;28;20482;-70
2021/12/10 10:51:40;;;;;;;10.55;2.67;;;;;;;5.52;100.00;99032.31;5250695;28;20029;-71
2021/12/10 10:54:12;;;;;;;6.70;2.20;;;;;;;5.44;100.00;99032.22;5252258;28;20376;-71
2021/12/10 10:56:46;;;;;;;7.10;2.45;;;;;;;5.50;100.00;99028.25;5252311;28;20379;-71
2021/12/10 10:59:24;;;;;;;6.70;2.60;;;;;;;5.58;100.00;99021.38;5248003;28;20029;-71
2021/12/10 11:02:08;;;;;;;6.82;2.28;;;;;;;5.66;100.00;99025.03;5253138;28;20482;-71
2021/12/10 11:04:45;;;;;;;7.70;2.50;;;;;;;5.49;100.00;99030.03;5253572;28;20487;-71
2021/12/10 11:07:23;;;;;;;10.73;2.70;;;;;;;5.56;100.00;99035.44;5252496;28;20759;-71
2021/12/10 11:09:59;;;;;;;8.00;2.80;;;;;;;5.46;100.00;99040.69;5252374;28;20032;-71
2021/12/10 11:12:34;;;;;;;10.43;2.80;;;;;;;5.52;100.00;99041.91;5253331;28;20033;-71
2021/12/10 11:15:11;;;;;;;7.90;2.67;;;;;;;5.58;100.00;99044.75;5253285;28;20033;-71
2021/12/10 11:17:50;;;;;;;6.85;2.45;;;;;;;5.63;100.00;99048.69;5250184;28;20041;-71
2021/12/10 11:20:29;;;;;;;6.18;2.40;;;;;;;5.63;100.00;99040.91;5252613;28;20029;-71
2021/12/10 11:23:05;;;;;;;7.43;2.90;;;;;;;5.52;100.00;99034.91;5250312;28;21510;-71
2021/12/10 11:25:48;;;;;;;10.35;2.70;;;;;;;5.63;100.00;99046.09;5250225;28;20025;-71
2021/12/10 11:28:31;;;;;;;6.93;2.57;;;;;;;5.51;100.00;99045.47;5252666;28;20453;-71
2021/12/10 11:31:15;;;;;;;8.45;2.88;;;;;;;5.62;100.00;99047.88;5252538;28;20051;-71
2021/12/10 11:33:52;;;;;;;5.45;2.33;;;;;;;5.59;100.00;99045.56;5249815;28;20074;-71
2021/12/10 11:36:26;;;;;;;7.50;2.85;;;;;;;5.55;100.00;99047.63;5252268;28;20032;-71
2021/12/10 11:38:58;;;;;;;8.57;2.78;;;;;;;5.42;100.00;99054.09;5252566;28;20552;-71
2021/12/10 11:41:31;;;;;;;11.65;2.33;;;;;;;5.45;100.00;99051.22;5252811;28;20108;-71
2021/12/10 11:44:37;;;;;;;5.97;2.25;;;;;;;5.50;100.00;99054.22;5248520;28;20382;-71
2021/12/10 11:47:38;;;;;;;5.78;2.15;;;;;;;5.48;100.00;99058.72;5252121;28;20029;-71
2021/12/10 11:50:21;;;;;;;8.20;2.10;;;;;;;5.56;100.00;99059.66;5250591;28;20021;-71
2021/12/10 11:53:19;;;;;;;9.32;2.40;;;;;;;5.65;100.00;99064.97;5249922;28;20036;-71
2021/12/10 11:56:03;;;;;;;8.27;2.45;;;;;;;5.48;100.00;99058.72;5247686;28;20049;-71
2021/12/10 11:58:34;;;;;;;9.87;2.67;;;;;;;5.43;100.00;99066.13;5250688;28;20035;-71
2021/12/10 12:01:15;;;;;;;9.35;2.55;;;;;;;5.43;100.00;99059.16;5252450;28;20554;-71
2021/12/10 12:03:46;;;;;;;8.65;2.33;;;;;;;5.34;100.00;99065.16;5251518;28;20412;-71
2021/12/10 12:06:19;;;;;;;6.40;2.45;;;;;;;5.35;100.00;99064.22;5252892;28;20111;-71
2021/12/10 12:08:50;;;;;;;7.10;2.38;;;;;;;5.42;100.00;99075.69;5251654;28;20047;-71
2021/12/10 12:11:21;;;;;;;7.60;2.35;;;;;;;5.41;100.00;99081.84;5252475;28;20020;-71
2021/12/10 12:13:57;;;;;;;6.93;2.63;;;;;;;5.41;100.00;99074.03;5251233;28;20021;-71